sensor_id;sensor_type;location;lat;lon;timestamp;P1;durP1;ratioP1;P2;durP2;ratioP2
10945;SDS011;5525;42.648;23.368;2023-07-29T00:01:00;3.85;;;2.97;;
10945;SDS011;5525;42.648;23.368;2023-07-29T00:03:27;3.17;;;2.88;;
10945;SDS011;5525;42.648;23.368;2023-07-29T00:05:55;3.20;;;2.90;;
10945;SDS011;5525;42.648;23.368;2023-07-29T00:08:21;3.28;;;2.83;;
10945;SDS011;5525;42.648;23.368;2023-07-29T00:10:50;4.25;;;2.88;;
10945;SDS011;5525;42.648;23.368;2023-07-29T00:13:17;2.80;;;2.60;;
10945;SDS011;5525;42.648;23.368;2023-07-29T00:15:43;3.00;;;2.70;;
10945;SDS011;5525;42.648;23.368;2023-07-29T00:18:10;4.75;;;2.83;;
10945;SDS011;5525;42.648;23.368;2023-07-29T00:20:37;3.33;;;2.80;;
10945;SDS011;5525;42.648;23.368;2023-07-29T00:23:03;3.72;;;2.90;;
10945;SDS011;5525;42.648;23.368;2023-07-29T00:25:30;3.30;;;2.95;;
10945;SDS011;5525;42.648;23.368;2023-07-29T00:27:58;3.80;;;3.38;;
10945;SDS011;5525;42.648;23.368;2023-07-29T00:30:25;3.80;;;3.33;;
10945;SDS011;5525;42.648;23.368;2023-07-29T00:32:51;3.17;;;2.88;;
10945;SDS011;5525;42.648;23.368;2023-07-29T00:35:18;3.47;;;3.03;;
10945;SDS011;5525;42.648;23.368;2023-07-29T00:37:45;3.90;;;2.90;;
10945;SDS011;5525;42.648;23.368;2023-07-29T00:40:13;3.72;;;3.10;;
10945;SDS011;5525;42.648;23.368;2023-07-29T00:42:42;4.90;;;3.38;;
10945;SDS011;5525;42.648;23.368;2023-07-29T00:45:10;4.22;;;3.67;;
10945;SDS011;5525;42.648;23.368;2023-07-29T00:47:37;3.72;;;3.20;;
10945;SDS011;5525;42.648;23.368;2023-07-29T00:50:04;4.28;;;3.35;;
10945;SDS011;5525;42.648;23.368;2023-07-29T00:52:32;5.85;;;3.90;;
10945;SDS011;5525;42.648;23.368;2023-07-29T00:54:59;3.85;;;3.33;;
10945;SDS011;5525;42.648;23.368;2023-07-29T00:57:26;3.75;;;3.35;;
10945;SDS011;5525;42.648;23.368;2023-07-29T00:59:54;7.25;;;3.78;;
10945;SDS011;5525;42.648;23.368;2023-07-29T01:02:22;3.85;;;3.45;;
10945;SDS011;5525;42.648;23.368;2023-07-29T01:04:51;5.03;;;3.28;;
10945;SDS011;5525;42.648;23.368;2023-07-29T01:07:21;5.07;;;3.33;;
10945;SDS011;5525;42.648;23.368;2023-07-29T01:09:56;3.42;;;2.90;;
10945;SDS011;5525;42.648;23.368;2023-07-29T01:12:29;4.90;;;3.50;;
10945;SDS011;5525;42.648;23.368;2023-07-29T01:15:08;3.28;;;2.97;;
10945;SDS011;5525;42.648;23.368;2023-07-29T01:17:42;3.72;;;3.30;;
10945;SDS011;5525;42.648;23.368;2023-07-29T01:20:13;6.22;;;3.80;;
10945;SDS011;5525;42.648;23.368;2023-07-29T01:22:41;4.82;;;3.47;;
10945;SDS011;5525;42.648;23.368;2023-07-29T01:25:10;3.92;;;3.53;;
10945;SDS011;5525;42.648;23.368;2023-07-29T01:27:36;4.47;;;3.42;;
10945;SDS011;5525;42.648;23.368;2023-07-29T01:30:04;4.00;;;3.20;;
10945;SDS011;5525;42.648;23.368;2023-07-29T01:32:33;4.22;;;3.50;;
10945;SDS011;5525;42.648;23.368;2023-07-29T01:35:10;4.22;;;3.53;;
10945;SDS011;5525;42.648;23.368;2023-07-29T01:37:45;4.38;;;3.50;;
10945;SDS011;5525;42.648;23.368;2023-07-29T01:40:16;3.83;;;3.30;;
10945;SDS011;5525;42.648;23.368;2023-07-29T01:42:44;3.50;;;3.20;;
10945;SDS011;5525;42.648;23.368;2023-07-29T01:45:11;4.10;;;3.65;;
10945;SDS011;5525;42.648;23.368;2023-07-29T01:47:38;5.70;;;5.13;;
10945;SDS011;5525;42.648;23.368;2023-07-29T01:50:07;7.35;;;4.55;;
10945;SDS011;5525;42.648;23.368;2023-07-29T01:52:34;4.10;;;3.80;;
10945;SDS011;5525;42.648;23.368;2023-07-29T01:55:00;4.35;;;3.58;;
10945;SDS011;5525;42.648;23.368;2023-07-29T01:57:28;4.13;;;3.63;;
10945;SDS011;5525;42.648;23.368;2023-07-29T01:59:55;4.05;;;3.70;;
10945;SDS011;5525;42.648;23.368;2023-07-29T02:02:22;4.70;;;3.63;;
10945;SDS011;5525;42.648;23.368;2023-07-29T02:04:48;3.60;;;3.30;;
10945;SDS011;5525;42.648;23.368;2023-07-29T02:07:17;4.55;;;3.80;;
10945;SDS011;5525;42.648;23.368;2023-07-29T02:09:43;4.90;;;3.80;;
10945;SDS011;5525;42.648;23.368;2023-07-29T02:12:10;4.30;;;3.90;;
10945;SDS011;5525;42.648;23.368;2023-07-29T02:14:38;4.28;;;3.60;;
10945;SDS011;5525;42.648;23.368;2023-07-29T02:17:05;6.53;;;3.60;;
10945;SDS011;5525;42.648;23.368;2023-07-29T02:19:31;3.45;;;3.15;;
10945;SDS011;5525;42.648;23.368;2023-07-29T02:21:58;4.00;;;3.17;;
10945;SDS011;5525;42.648;23.368;2023-07-29T02:24:25;3.10;;;2.80;;
10945;SDS011;5525;42.648;23.368;2023-07-29T02:26:51;5.22;;;3.10;;
10945;SDS011;5525;42.648;23.368;2023-07-29T02:29:18;3.75;;;3.05;;
10945;SDS011;5525;42.648;23.368;2023-07-29T02:31:46;3.00;;;2.70;;
10945;SDS011;5525;42.648;23.368;2023-07-29T02:34:13;2.97;;;2.78;;
10945;SDS011;5525;42.648;23.368;2023-07-29T02:36:39;4.57;;;2.80;;
10945;SDS011;5525;42.648;23.368;2023-07-29T02:39:06;4.15;;;2.80;;
10945;SDS011;5525;42.648;23.368;2023-07-29T02:41:33;3.20;;;2.90;;
10945;SDS011;5525;42.648;23.368;2023-07-29T02:43:59;3.08;;;2.88;;
10945;SDS011;5525;42.648;23.368;2023-07-29T02:46:27;5.13;;;2.95;;
10945;SDS011;5525;42.648;23.368;2023-07-29T02:48:55;3.55;;;3.25;;
10945;SDS011;5525;42.648;23.368;2023-07-29T02:51:22;7.50;;;6.95;;
10945;SDS011;5525;42.648;23.368;2023-07-29T02:53:49;5.80;;;5.20;;
10945;SDS011;5525;42.648;23.368;2023-07-29T02:56:15;4.47;;;3.40;;
10945;SDS011;5525;42.648;23.368;2023-07-29T02:58:42;4.15;;;3.33;;
10945;SDS011;5525;42.648;23.368;2023-07-29T03:01:10;3.50;;;3.10;;
10945;SDS011;5525;42.648;23.368;2023-07-29T03:03:36;3.30;;;3.00;;
10945;SDS011;5525;42.648;23.368;2023-07-29T03:06:05;4.25;;;3.35;;
10945;SDS011;5525;42.648;23.368;2023-07-29T03:08:33;4.63;;;3.35;;
10945;SDS011;5525;42.648;23.368;2023-07-29T03:11:04;6.18;;;3.30;;
10945;SDS011;5525;42.648;23.368;2023-07-29T03:13:32;4.80;;;3.50;;
10945;SDS011;5525;42.648;23.368;2023-07-29T03:16:04;3.63;;;3.28;;
10945;SDS011;5525;42.648;23.368;2023-07-29T03:18:31;3.65;;;3.35;;
10945;SDS011;5525;42.648;23.368;2023-07-29T03:20:57;3.97;;;3.58;;
10945;SDS011;5525;42.648;23.368;2023-07-29T03:23:25;4.88;;;3.33;;
10945;SDS011;5525;42.648;23.368;2023-07-29T03:25:54;3.88;;;3.47;;
10945;SDS011;5525;42.648;23.368;2023-07-29T03:28:23;4.47;;;3.67;;
10945;SDS011;5525;42.648;23.368;2023-07-29T03:30:50;4.75;;;3.60;;
10945;SDS011;5525;42.648;23.368;2023-07-29T03:33:17;4.43;;;3.70;;
10945;SDS011;5525;42.648;23.368;2023-07-29T03:35:43;3.55;;;3.25;;
10945;SDS011;5525;42.648;23.368;2023-07-29T03:38:10;4.30;;;3.38;;
10945;SDS011;5525;42.648;23.368;2023-07-29T03:40:38;4.82;;;3.50;;
10945;SDS011;5525;42.648;23.368;2023-07-29T03:43:05;3.60;;;3.30;;
10945;SDS011;5525;42.648;23.368;2023-07-29T03:45:31;5.78;;;4.38;;
10945;SDS011;5525;42.648;23.368;2023-07-29T03:47:58;4.38;;;3.45;;
10945;SDS011;5525;42.648;23.368;2023-07-29T03:50:25;4.85;;;4.13;;
10945;SDS011;5525;42.648;23.368;2023-07-29T03:52:52;4.03;;;3.63;;
10945;SDS011;5525;42.648;23.368;2023-07-29T03:55:18;6.55;;;3.55;;
10945;SDS011;5525;42.648;23.368;2023-07-29T03:57:47;6.95;;;3.78;;
10945;SDS011;5525;42.648;23.368;2023-07-29T04:00:14;4.75;;;3.63;;
10945;SDS011;5525;42.648;23.368;2023-07-29T04:02:41;4.28;;;3.42;;
10945;SDS011;5525;42.648;23.368;2023-07-29T04:05:08;4.22;;;3.20;;
10945;SDS011;5525;42.648;23.368;2023-07-29T04:07:35;4.15;;;3.33;;
10945;SDS011;5525;42.648;23.368;2023-07-29T04:10:02;3.67;;;3.28;;
10945;SDS011;5525;42.648;23.368;2023-07-29T04:12:30;3.78;;;3.38;;
10945;SDS011;5525;42.648;23.368;2023-07-29T04:14:58;4.18;;;3.72;;
10945;SDS011;5525;42.648;23.368;2023-07-29T04:17:25;3.40;;;3.10;;
10945;SDS011;5525;42.648;23.368;2023-07-29T04:19:52;4.50;;;3.42;;
10945;SDS011;5525;42.648;23.368;2023-07-29T04:22:18;6.32;;;3.58;;
10945;SDS011;5525;42.648;23.368;2023-07-29T04:24:46;3.92;;;3.50;;
10945;SDS011;5525;42.648;23.368;2023-07-29T04:27:13;3.78;;;3.35;;
10945;SDS011;5525;42.648;23.368;2023-07-29T04:29:39;3.80;;;3.50;;
10945;SDS011;5525;42.648;23.368;2023-07-29T04:32:07;3.75;;;3.45;;
10945;SDS011;5525;42.648;23.368;2023-07-29T04:34:34;3.60;;;3.30;;
10945;SDS011;5525;42.648;23.368;2023-07-29T04:37:01;4.28;;;3.50;;
10945;SDS011;5525;42.648;23.368;2023-07-29T04:39:27;4.03;;;3.45;;
10945;SDS011;5525;42.648;23.368;2023-07-29T04:41:54;3.72;;;3.28;;
10945;SDS011;5525;42.648;23.368;2023-07-29T04:44:22;5.97;;;3.03;;
10945;SDS011;5525;42.648;23.368;2023-07-29T04:46:49;4.82;;;3.50;;
10945;SDS011;5525;42.648;23.368;2023-07-29T04:49:17;5.30;;;3.40;;
10945;SDS011;5525;42.648;23.368;2023-07-29T04:51:43;3.67;;;3.38;;
10945;SDS011;5525;42.648;23.368;2023-07-29T04:54:10;4.28;;;3.30;;
10945;SDS011;5525;42.648;23.368;2023-07-29T04:56:36;3.85;;;3.30;;
10945;SDS011;5525;42.648;23.368;2023-07-29T04:59:03;6.65;;;3.47;;
10945;SDS011;5525;42.648;23.368;2023-07-29T05:01:30;4.38;;;3.42;;
10945;SDS011;5525;42.648;23.368;2023-07-29T05:03:56;7.43;;;3.45;;
10945;SDS011;5525;42.648;23.368;2023-07-29T05:06:25;3.38;;;3.00;;
10945;SDS011;5525;42.648;23.368;2023-07-29T05:08:51;3.08;;;2.88;;
10945;SDS011;5525;42.648;23.368;2023-07-29T05:11:18;3.58;;;3.20;;
10945;SDS011;5525;42.648;23.368;2023-07-29T05:13:44;3.33;;;2.95;;
10945;SDS011;5525;42.648;23.368;2023-07-29T05:16:11;3.88;;;3.35;;
10945;SDS011;5525;42.648;23.368;2023-07-29T05:18:38;4.35;;;3.35;;
10945;SDS011;5525;42.648;23.368;2023-07-29T05:21:04;5.57;;;3.40;;
10945;SDS011;5525;42.648;23.368;2023-07-29T05:23:32;3.38;;;3.05;;
10945;SDS011;5525;42.648;23.368;2023-07-29T05:25:59;3.58;;;3.28;;
10945;SDS011;5525;42.648;23.368;2023-07-29T05:28:26;3.83;;;3.35;;
10945;SDS011;5525;42.648;23.368;2023-07-29T05:30:52;3.20;;;2.90;;
10945;SDS011;5525;42.648;23.368;2023-07-29T05:33:19;3.33;;;3.03;;
10945;SDS011;5525;42.648;23.368;2023-07-29T05:35:46;4.15;;;3.20;;
10945;SDS011;5525;42.648;23.368;2023-07-29T05:38:12;4.65;;;3.40;;
10945;SDS011;5525;42.648;23.368;2023-07-29T05:40:40;3.63;;;3.25;;
10945;SDS011;5525;42.648;23.368;2023-07-29T05:43:07;4.65;;;3.05;;
10945;SDS011;5525;42.648;23.368;2023-07-29T05:45:34;7.15;;;3.30;;
10945;SDS011;5525;42.648;23.368;2023-07-29T05:48:00;3.50;;;3.20;;
10945;SDS011;5525;42.648;23.368;2023-07-29T05:50:27;3.90;;;3.55;;
10945;SDS011;5525;42.648;23.368;2023-07-29T05:52:53;3.95;;;3.40;;
10945;SDS011;5525;42.648;23.368;2023-07-29T05:55:20;4.25;;;3.67;;
10945;SDS011;5525;42.648;23.368;2023-07-29T05:57:48;3.88;;;3.47;;
10945;SDS011;5525;42.648;23.368;2023-07-29T06:00:15;3.92;;;3.63;;
10945;SDS011;5525;42.648;23.368;2023-07-29T06:02:42;5.35;;;3.42;;
10945;SDS011;5525;42.648;23.368;2023-07-29T06:05:08;3.83;;;3.50;;
10945;SDS011;5525;42.648;23.368;2023-07-29T06:07:35;4.80;;;3.85;;
10945;SDS011;5525;42.648;23.368;2023-07-29T06:10:02;5.00;;;4.25;;
10945;SDS011;5525;42.648;23.368;2023-07-29T06:12:28;4.57;;;4.18;;
10945;SDS011;5525;42.648;23.368;2023-07-29T06:14:56;4.43;;;3.65;;
10945;SDS011;5525;42.648;23.368;2023-07-29T06:17:23;4.65;;;3.85;;
10945;SDS011;5525;42.648;23.368;2023-07-29T06:19:50;3.85;;;3.55;;
10945;SDS011;5525;42.648;23.368;2023-07-29T06:22:17;4.68;;;4.15;;
10945;SDS011;5525;42.648;23.368;2023-07-29T06:24:43;4.50;;;4.10;;
10945;SDS011;5525;42.648;23.368;2023-07-29T06:27:10;5.13;;;4.63;;
10945;SDS011;5525;42.648;23.368;2023-07-29T06:29:37;5.78;;;3.63;;
10945;SDS011;5525;42.648;23.368;2023-07-29T06:32:05;4.68;;;3.95;;
10945;SDS011;5525;42.648;23.368;2023-07-29T06:34:32;5.50;;;4.05;;
10945;SDS011;5525;42.648;23.368;2023-07-29T06:36:59;4.68;;;4.13;;
10945;SDS011;5525;42.648;23.368;2023-07-29T06:39:25;4.10;;;3.70;;
10945;SDS011;5525;42.648;23.368;2023-07-29T06:41:52;4.82;;;3.60;;
10945;SDS011;5525;42.648;23.368;2023-07-29T06:44:19;4.25;;;3.60;;
10945;SDS011;5525;42.648;23.368;2023-07-29T06:46:46;4.45;;;4.05;;
10945;SDS011;5525;42.648;23.368;2023-07-29T06:49:14;4.30;;;3.72;;
10945;SDS011;5525;42.648;23.368;2023-07-29T06:51:41;4.88;;;3.47;;
10945;SDS011;5525;42.648;23.368;2023-07-29T06:54:07;5.93;;;3.88;;
10945;SDS011;5525;42.648;23.368;2023-07-29T06:56:34;6.63;;;4.30;;
10945;SDS011;5525;42.648;23.368;2023-07-29T06:59:01;5.15;;;3.53;;
10945;SDS011;5525;42.648;23.368;2023-07-29T07:01:27;6.18;;;3.60;;
10945;SDS011;5525;42.648;23.368;2023-07-29T07:03:54;4.20;;;3.40;;
10945;SDS011;5525;42.648;23.368;2023-07-29T07:06:24;14.23;;;4.47;;
10945;SDS011;5525;42.648;23.368;2023-07-29T07:08:51;4.93;;;3.67;;
10945;SDS011;5525;42.648;23.368;2023-07-29T07:11:18;6.15;;;3.60;;
10945;SDS011;5525;42.648;23.368;2023-07-29T07:13:45;5.45;;;3.88;;
10945;SDS011;5525;42.648;23.368;2023-07-29T07:16:11;5.38;;;3.47;;
10945;SDS011;5525;42.648;23.368;2023-07-29T07:18:38;9.10;;;4.00;;
10945;SDS011;5525;42.648;23.368;2023-07-29T07:21:05;9.07;;;4.20;;
10945;SDS011;5525;42.648;23.368;2023-07-29T07:23:33;7.70;;;4.00;;
10945;SDS011;5525;42.648;23.368;2023-07-29T07:25:59;5.55;;;3.53;;
10945;SDS011;5525;42.648;23.368;2023-07-29T07:28:26;7.55;;;3.80;;
10945;SDS011;5525;42.648;23.368;2023-07-29T07:30:53;6.60;;;4.13;;
10945;SDS011;5525;42.648;23.368;2023-07-29T07:33:21;5.05;;;3.88;;
10945;SDS011;5525;42.648;23.368;2023-07-29T07:35:48;5.45;;;3.95;;
10945;SDS011;5525;42.648;23.368;2023-07-29T07:38:14;7.30;;;3.83;;
10945;SDS011;5525;42.648;23.368;2023-07-29T07:40:43;7.28;;;4.10;;
10945;SDS011;5525;42.648;23.368;2023-07-29T07:43:19;5.78;;;4.10;;
10945;SDS011;5525;42.648;23.368;2023-07-29T07:45:45;7.03;;;3.95;;
10945;SDS011;5525;42.648;23.368;2023-07-29T07:48:12;4.43;;;3.80;;
10945;SDS011;5525;42.648;23.368;2023-07-29T07:50:39;7.03;;;4.10;;
10945;SDS011;5525;42.648;23.368;2023-07-29T07:53:06;4.38;;;3.90;;
10945;SDS011;5525;42.648;23.368;2023-07-29T07:55:32;4.30;;;3.80;;
10945;SDS011;5525;42.648;23.368;2023-07-29T07:58:00;4.85;;;3.78;;
10945;SDS011;5525;42.648;23.368;2023-07-29T08:00:27;8.60;;;3.80;;
10945;SDS011;5525;42.648;23.368;2023-07-29T08:02:54;6.72;;;4.05;;
10945;SDS011;5525;42.648;23.368;2023-07-29T08:05:20;9.77;;;3.80;;
10945;SDS011;5525;42.648;23.368;2023-07-29T08:07:47;5.60;;;4.03;;
10945;SDS011;5525;42.648;23.368;2023-07-29T08:10:13;14.02;;;4.57;;
10945;SDS011;5525;42.648;23.368;2023-07-29T08:12:40;5.50;;;3.95;;
10945;SDS011;5525;42.648;23.368;2023-07-29T08:15:08;4.63;;;3.42;;
10945;SDS011;5525;42.648;23.368;2023-07-29T08:17:35;4.00;;;3.53;;
10945;SDS011;5525;42.648;23.368;2023-07-29T08:20:02;5.38;;;3.30;;
10945;SDS011;5525;42.648;23.368;2023-07-29T08:22:29;5.25;;;3.50;;
10945;SDS011;5525;42.648;23.368;2023-07-29T08:24:55;5.22;;;3.53;;
10945;SDS011;5525;42.648;23.368;2023-07-29T08:27:22;3.70;;;3.40;;
10945;SDS011;5525;42.648;23.368;2023-07-29T08:29:49;6.35;;;3.90;;
10945;SDS011;5525;42.648;23.368;2023-07-29T08:32:17;4.50;;;3.38;;
10945;SDS011;5525;42.648;23.368;2023-07-29T08:34:43;4.05;;;3.50;;
10945;SDS011;5525;42.648;23.368;2023-07-29T08:37:10;3.80;;;3.42;;
10945;SDS011;5525;42.648;23.368;2023-07-29T08:39:37;3.53;;;3.15;;
10945;SDS011;5525;42.648;23.368;2023-07-29T08:42:04;4.22;;;3.30;;
10945;SDS011;5525;42.648;23.368;2023-07-29T08:44:35;5.72;;;3.38;;
10945;SDS011;5525;42.648;23.368;2023-07-29T08:47:06;4.10;;;2.50;;
10945;SDS011;5525;42.648;23.368;2023-07-29T08:49:34;4.10;;;2.75;;
10945;SDS011;5525;42.648;23.368;2023-07-29T08:52:02;4.47;;;2.83;;
10945;SDS011;5525;42.648;23.368;2023-07-29T08:54:30;3.17;;;2.60;;
10945;SDS011;5525;42.648;23.368;2023-07-29T08:56:57;4.50;;;2.50;;
10945;SDS011;5525;42.648;23.368;2023-07-29T08:59:24;5.03;;;2.50;;
10945;SDS011;5525;42.648;23.368;2023-07-29T09:01:52;3.03;;;2.70;;
10945;SDS011;5525;42.648;23.368;2023-07-29T09:04:20;2.70;;;2.50;;
10945;SDS011;5525;42.648;23.368;2023-07-29T09:06:50;2.33;;;2.13;;
10945;SDS011;5525;42.648;23.368;2023-07-29T09:09:17;3.97;;;2.38;;
10945;SDS011;5525;42.648;23.368;2023-07-29T09:11:43;2.88;;;2.22;;
10945;SDS011;5525;42.648;23.368;2023-07-29T09:14:10;2.92;;;2.45;;
10945;SDS011;5525;42.648;23.368;2023-07-29T09:16:38;9.30;;;2.53;;
10945;SDS011;5525;42.648;23.368;2023-07-29T09:19:05;2.22;;;2.05;;
10945;SDS011;5525;42.648;23.368;2023-07-29T09:21:31;3.13;;;1.92;;
10945;SDS011;5525;42.648;23.368;2023-07-29T09:24:03;2.30;;;1.60;;
10945;SDS011;5525;42.648;23.368;2023-07-29T09:26:32;3.25;;;2.30;;
10945;SDS011;5525;42.648;23.368;2023-07-29T09:28:59;2.35;;;2.15;;
10945;SDS011;5525;42.648;23.368;2023-07-29T09:31:27;3.65;;;2.90;;
10945;SDS011;5525;42.648;23.368;2023-07-29T09:33:55;2.78;;;2.25;;
10945;SDS011;5525;42.648;23.368;2023-07-29T09:36:23;6.78;;;2.30;;
10945;SDS011;5525;42.648;23.368;2023-07-29T09:38:52;1.90;;;1.80;;
10945;SDS011;5525;42.648;23.368;2023-07-29T09:41:23;3.95;;;2.00;;
10945;SDS011;5525;42.648;23.368;2023-07-29T09:43:54;2.08;;;1.95;;
10945;SDS011;5525;42.648;23.368;2023-07-29T09:46:23;2.83;;;1.73;;
10945;SDS011;5525;42.648;23.368;2023-07-29T09:48:52;1.63;;;1.52;;
10945;SDS011;5525;42.648;23.368;2023-07-29T09:51:19;3.78;;;1.75;;
10945;SDS011;5525;42.648;23.368;2023-07-29T09:53:47;5.18;;;1.63;;
10945;SDS011;5525;42.648;23.368;2023-07-29T09:56:14;6.60;;;1.92;;
10945;SDS011;5525;42.648;23.368;2023-07-29T09:58:43;2.00;;;1.80;;
10945;SDS011;5525;42.648;23.368;2023-07-29T10:01:11;1.90;;;1.70;;
10945;SDS011;5525;42.648;23.368;2023-07-29T10:03:39;2.33;;;1.80;;
10945;SDS011;5525;42.648;23.368;2023-07-29T10:06:06;2.33;;;1.70;;
10945;SDS011;5525;42.648;23.368;2023-07-29T10:08:34;3.40;;;2.00;;
10945;SDS011;5525;42.648;23.368;2023-07-29T10:11:03;3.92;;;2.10;;
10945;SDS011;5525;42.648;23.368;2023-07-29T10:13:31;3.75;;;1.92;;
10945;SDS011;5525;42.648;23.368;2023-07-29T10:16:00;5.10;;;2.28;;
10945;SDS011;5525;42.648;23.368;2023-07-29T10:18:27;1.70;;;1.60;;
10945;SDS011;5525;42.648;23.368;2023-07-29T10:20:56;2.35;;;2.03;;
10945;SDS011;5525;42.648;23.368;2023-07-29T10:23:24;2.75;;;2.05;;
10945;SDS011;5525;42.648;23.368;2023-07-29T10:25:53;3.20;;;1.98;;
10945;SDS011;5525;42.648;23.368;2023-07-29T10:28:24;7.00;;;2.15;;
10945;SDS011;5525;42.648;23.368;2023-07-29T10:30:52;1.88;;;1.73;;
10945;SDS011;5525;42.648;23.368;2023-07-29T10:33:22;2.88;;;2.30;;
10945;SDS011;5525;42.648;23.368;2023-07-29T10:35:49;3.17;;;1.88;;
10945;SDS011;5525;42.648;23.368;2023-07-29T10:38:16;5.47;;;2.88;;
10945;SDS011;5525;42.648;23.368;2023-07-29T10:40:45;5.93;;;2.88;;
10945;SDS011;5525;42.648;23.368;2023-07-29T10:43:13;2.53;;;1.60;;
10945;SDS011;5525;42.648;23.368;2023-07-29T10:45:45;1.77;;;1.55;;
10945;SDS011;5525;42.648;23.368;2023-07-29T10:48:12;2.53;;;1.90;;
10945;SDS011;5525;42.648;23.368;2023-07-29T10:53:54;2.55;;;1.60;;
10945;SDS011;5525;42.648;23.368;2023-07-29T10:56:28;4.05;;;1.85;;
10945;SDS011;5525;42.648;23.368;2023-07-29T10:59:01;10.55;;;2.47;;
10945;SDS011;5525;42.648;23.368;2023-07-29T11:01:50;2.25;;;1.60;;
10945;SDS011;5525;42.648;23.368;2023-07-29T11:04:25;2.55;;;1.40;;
10945;SDS011;5525;42.648;23.368;2023-07-29T11:09:52;1.52;;;1.42;;
10945;SDS011;5525;42.648;23.368;2023-07-29T11:12:34;2.25;;;1.60;;
10945;SDS011;5525;42.648;23.368;2023-07-29T11:15:11;3.72;;;1.70;;
10945;SDS011;5525;42.648;23.368;2023-07-29T11:17:40;2.53;;;1.77;;
10945;SDS011;5525;42.648;23.368;2023-07-29T11:20:08;2.20;;;1.80;;
10945;SDS011;5525;42.648;23.368;2023-07-29T11:22:37;1.73;;;1.63;;
10945;SDS011;5525;42.648;23.368;2023-07-29T11:25:05;1.80;;;1.70;;
10945;SDS011;5525;42.648;23.368;2023-07-29T11:27:34;2.53;;;1.70;;
10945;SDS011;5525;42.648;23.368;2023-07-29T11:30:02;1.70;;;1.60;;
10945;SDS011;5525;42.648;23.368;2023-07-29T11:32:31;2.17;;;1.90;;
10945;SDS011;5525;42.648;23.368;2023-07-29T11:35:01;1.63;;;1.52;;
10945;SDS011;5525;42.648;23.368;2023-07-29T11:37:29;2.95;;;1.80;;
10945;SDS011;5525;42.648;23.368;2023-07-29T11:39:57;3.05;;;1.60;;
10945;SDS011;5525;42.648;23.368;2023-07-29T11:42:24;2.28;;;1.70;;
10945;SDS011;5525;42.648;23.368;2023-07-29T11:44:53;4.03;;;1.90;;
10945;SDS011;5525;42.648;23.368;2023-07-29T11:47:22;1.60;;;1.50;;
10945;SDS011;5525;42.648;23.368;2023-07-29T11:49:49;2.90;;;1.60;;
10945;SDS011;5525;42.648;23.368;2023-07-29T11:52:16;1.48;;;1.38;;
10945;SDS011;5525;42.648;23.368;2023-07-29T11:54:44;1.50;;;1.40;;
10945;SDS011;5525;42.648;23.368;2023-07-29T11:57:12;1.60;;;1.50;;
10945;SDS011;5525;42.648;23.368;2023-07-29T11:59:39;1.80;;;1.50;;
10945;SDS011;5525;42.648;23.368;2023-07-29T12:02:08;1.63;;;1.52;;
10945;SDS011;5525;42.648;23.368;2023-07-29T12:04:37;3.53;;;1.90;;
10945;SDS011;5525;42.648;23.368;2023-07-29T12:07:05;1.45;;;1.35;;
10945;SDS011;5525;42.648;23.368;2023-07-29T12:09:32;1.85;;;1.40;;
10945;SDS011;5525;42.648;23.368;2023-07-29T12:11:59;2.25;;;1.60;;
10945;SDS011;5525;42.648;23.368;2023-07-29T12:14:30;1.77;;;1.67;;
10945;SDS011;5525;42.648;23.368;2023-07-29T12:16:59;1.60;;;1.50;;
10945;SDS011;5525;42.648;23.368;2023-07-29T12:19:31;1.40;;;1.30;;
10945;SDS011;5525;42.648;23.368;2023-07-29T12:21:58;1.30;;;1.20;;
10945;SDS011;5525;42.648;23.368;2023-07-29T12:24:25;1.75;;;1.20;;
10945;SDS011;5525;42.648;23.368;2023-07-29T12:26:51;1.40;;;1.30;;
10945;SDS011;5525;42.648;23.368;2023-07-29T12:29:19;1.48;;;1.38;;
10945;SDS011;5525;42.648;23.368;2023-07-29T12:31:47;2.72;;;1.30;;
10945;SDS011;5525;42.648;23.368;2023-07-29T12:34:17;3.55;;;1.40;;
10945;SDS011;5525;42.648;23.368;2023-07-29T12:36:45;1.50;;;1.40;;
10945;SDS011;5525;42.648;23.368;2023-07-29T12:39:17;3.00;;;1.30;;
10945;SDS011;5525;42.648;23.368;2023-07-29T12:41:44;1.40;;;1.30;;
10945;SDS011;5525;42.648;23.368;2023-07-29T12:44:11;1.52;;;1.30;;
10945;SDS011;5525;42.648;23.368;2023-07-29T12:46:38;2.53;;;1.40;;
10945;SDS011;5525;42.648;23.368;2023-07-29T12:49:06;10.85;;;2.38;;
10945;SDS011;5525;42.648;23.368;2023-07-29T12:51:33;1.20;;;1.10;;
10945;SDS011;5525;42.648;23.368;2023-07-29T12:54:01;1.58;;;1.38;;
10945;SDS011;5525;42.648;23.368;2023-07-29T12:56:29;2.80;;;1.33;;
10945;SDS011;5525;42.648;23.368;2023-07-29T12:58:56;1.60;;;1.20;;
10945;SDS011;5525;42.648;23.368;2023-07-29T13:01:22;1.80;;;1.55;;
10945;SDS011;5525;42.648;23.368;2023-07-29T13:03:49;3.55;;;2.85;;
10945;SDS011;5525;42.648;23.368;2023-07-29T13:06:17;2.58;;;1.90;;
10945;SDS011;5525;42.648;23.368;2023-07-29T13:08:44;1.60;;;1.50;;
10945;SDS011;5525;42.648;23.368;2023-07-29T13:11:12;1.90;;;1.80;;
10945;SDS011;5525;42.648;23.368;2023-07-29T13:13:38;2.47;;;1.77;;
10945;SDS011;5525;42.648;23.368;2023-07-29T13:16:05;1.98;;;1.77;;
10945;SDS011;5525;42.648;23.368;2023-07-29T13:18:32;2.15;;;1.90;;
10945;SDS011;5525;42.648;23.368;2023-07-29T13:20:58;2.15;;;1.77;;
10945;SDS011;5525;42.648;23.368;2023-07-29T13:23:27;2.08;;;1.70;;
10945;SDS011;5525;42.648;23.368;2023-07-29T13:25:54;1.83;;;1.73;;
10945;SDS011;5525;42.648;23.368;2023-07-29T13:28:21;1.88;;;1.48;;
10945;SDS011;5525;42.648;23.368;2023-07-29T13:30:48;2.47;;;1.80;;
10945;SDS011;5525;42.648;23.368;2023-07-29T13:33:15;1.73;;;1.60;;
10945;SDS011;5525;42.648;23.368;2023-07-29T13:35:41;2.00;;;1.80;;
10945;SDS011;5525;42.648;23.368;2023-07-29T13:38:08;2.40;;;1.70;;
10945;SDS011;5525;42.648;23.368;2023-07-29T13:40:37;3.28;;;1.88;;
10945;SDS011;5525;42.648;23.368;2023-07-29T13:43:04;1.83;;;1.73;;
10945;SDS011;5525;42.648;23.368;2023-07-29T13:45:30;2.80;;;1.73;;
10945;SDS011;5525;42.648;23.368;2023-07-29T13:47:57;2.75;;;1.75;;
10945;SDS011;5525;42.648;23.368;2023-07-29T13:50:24;1.85;;;1.60;;
10945;SDS011;5525;42.648;23.368;2023-07-29T13:52:50;9.52;;;2.00;;
10945;SDS011;5525;42.648;23.368;2023-07-29T13:55:17;13.05;;;2.00;;
10945;SDS011;5525;42.648;23.368;2023-07-29T13:57:45;1.92;;;1.73;;
10945;SDS011;5525;42.648;23.368;2023-07-29T14:00:12;1.73;;;1.63;;
10945;SDS011;5525;42.648;23.368;2023-07-29T14:02:39;1.80;;;1.70;;
10945;SDS011;5525;42.648;23.368;2023-07-29T14:05:06;2.10;;;1.83;;
10945;SDS011;5525;42.648;23.368;2023-07-29T14:07:33;2.33;;;2.10;;
10945;SDS011;5525;42.648;23.368;2023-07-29T14:09:59;2.72;;;2.10;;
10945;SDS011;5525;42.648;23.368;2023-07-29T14:12:26;2.38;;;2.17;;
10945;SDS011;5525;42.648;23.368;2023-07-29T14:14:54;2.97;;;1.98;;
10945;SDS011;5525;42.648;23.368;2023-07-29T14:17:21;3.72;;;2.20;;
10945;SDS011;5525;42.648;23.368;2023-07-29T14:19:47;2.95;;;2.00;;
10945;SDS011;5525;42.648;23.368;2023-07-29T14:22:14;2.30;;;2.10;;
10945;SDS011;5525;42.648;23.368;2023-07-29T14:24:41;2.42;;;2.10;;
10945;SDS011;5525;42.648;23.368;2023-07-29T14:27:07;8.57;;;2.33;;
10945;SDS011;5525;42.648;23.368;2023-07-29T14:29:34;4.75;;;1.70;;
10945;SDS011;5525;42.648;23.368;2023-07-29T14:32:02;2.67;;;1.73;;
10945;SDS011;5525;42.648;23.368;2023-07-29T14:34:30;2.28;;;2.03;;
10945;SDS011;5525;42.648;23.368;2023-07-29T14:36:56;3.60;;;2.10;;
10945;SDS011;5525;42.648;23.368;2023-07-29T14:39:23;2.25;;;2.00;;
10945;SDS011;5525;42.648;23.368;2023-07-29T14:41:49;1.85;;;1.70;;
10945;SDS011;5525;42.648;23.368;2023-07-29T14:44:16;2.42;;;1.80;;
10945;SDS011;5525;42.648;23.368;2023-07-29T14:46:43;1.85;;;1.60;;
10945;SDS011;5525;42.648;23.368;2023-07-29T14:49:11;2.65;;;1.80;;
10945;SDS011;5525;42.648;23.368;2023-07-29T14:51:37;2.15;;;1.92;;
10945;SDS011;5525;42.648;23.368;2023-07-29T14:54:04;5.70;;;1.90;;
10945;SDS011;5525;42.648;23.368;2023-07-29T14:56:31;2.00;;;1.90;;